This is the latest recevied weather packets stored in our database for station/object EW8324. If no packets are shown the sender has not sent any weather packets the latest 1 day(s).
| Time | Temp. | Humidity | Pressure | Rain* | Wind** | Luminosity | Snow |
|---|---|---|---|---|---|---|---|
| 1778100516 | 30.56° C | 73% | 1003.9 hPa | 0 mm | - | 77 W/m² | - |
| 1778100217 | 30.56° C | 73% | 1004 hPa | 0 mm | - | 206 W/m² | - |
| 1778099018 | 30.56° C | 74% | 1004.1 hPa | 0 mm | - | 232 W/m² | - |
| 1778098655 | 30.56° C | 74% | 1004.2 hPa | 0 mm | - | 303 W/m² | - |
| 1778096017 | 30° C | 78% | 1004.5 hPa | 0 mm | - | - | - |
| 1778095356 | 28.89° C | 80% | 1004.6 hPa | 0 mm | - | 682 W/m² | - |
| 1778095067 | 28.89° C | 80% | 1004.7 hPa | 0 mm | - | 318 W/m² | - |
| 1778094452 | 28.89° C | 79% | 1004.9 hPa | 0 mm | - | 225 W/m² | - |
| 1778093252 | 28.89° C | 79% | 1005.1 hPa | 0 mm | - | 102 W/m² | - |
| 1778091753 | 28.89° C | 80% | 1005.4 hPa | 0 mm | - | 392 W/m² | - |
| 1778091158 | 28.33° C | 83% | 1005.7 hPa | 0 mm | - | 383 W/m² | - |
| 1778090250 | 27.78° C | 82% | 1006 hPa | 0 mm | - | 346 W/m² | - |
| 1778089952 | 27.78° C | 84% | 1006.1 hPa | 0 mm | - | 269 W/m² | - |
| 1778089052 | 27.78° C | 85% | 1006.4 hPa | 0 mm | - | 232 W/m² | - |
| 1778087552 | 27.78° C | 83% | 1006.6 hPa | 0 mm | - | 79 W/m² | - |
| 1778087015 | 27.78° C | 82% | 1006.6 hPa | 0 mm | - | 32 W/m² | - |
| 1778085755 | 27.78° C | 82% | 1006.3 hPa | 0 mm | - | 181 W/m² | - |
| 1778084552 | 27.22° C | 84% | 1006.3 hPa | 0 mm | - | 197 W/m² | - |
| 1778084248 | 27.22° C | 84% | 1006.3 hPa | 0 mm | - | 135 W/m² | - |
| 1778083711 | 27.22° C | 84% | 1006.1 hPa | 0 mm | - | 111 W/m² | - |
| 1778083366 | 27.22° C | 84% | 1006 hPa | 0 mm | - | 90 W/m² | - |
| 1778082818 | 26.67° C | 84% | 1006.1 hPa | 0 mm | - | 102 W/m² | - |
| 1778081248 | 26.67° C | 84% | 1006 hPa | 0 mm | - | 106 W/m² | - |
| 1778080955 | 26.67° C | 84% | 1005.9 hPa | 0 mm | - | 48 W/m² | - |
| 1778080354 | 26.67° C | 84% | 1005.8 hPa | 0 mm | - | 90 W/m² | - |
* Rain latest hour (hover to see other rain measurements)
** Current wind speed in m/s (hover to see current wind gust speed)